Time;durP1;ratioP1;P1;durP2;ratioP2;P2;SDS_P1;SDS_P2;PMS_P1;PMS_P2;Temp;Humidity;BMP_temperature;BMP_pressure;BME280_temperature;BME280_humidity;BME280_pressure;Samples;Min_cycle;Max_cycle;Signal;HPM_P1;HPM_P2
2022/03/31 00:01:30;;;;;;;2.47;0.93;;;22.00;63.00;;;;;;4950569;28;20281;-57
2022/03/31 00:04:00;;;;;;;1.98;0.80;;;22.00;62.90;;;;;;4950812;28;20321;-57
2022/03/31 00:06:31;;;;;;;3.67;0.95;;;22.10;62.90;;;;;;4951193;28;20336;-57
2022/03/31 00:09:03;;;;;;;1.10;0.70;;;22.10;62.70;;;;;;4951174;28;20309;-57
2022/03/31 00:11:33;;;;;;;2.80;1.10;;;22.10;62.70;;;;;;4950272;28;20197;-57
2022/03/31 00:14:04;;;;;;;2.17;0.90;;;22.10;62.60;;;;;;4950748;28;20202;-57
2022/03/31 00:16:34;;;;;;;1.35;0.90;;;22.20;62.70;;;;;;4951185;28;20203;-57
2022/03/31 00:19:05;;;;;;;1.10;0.90;;;22.20;62.70;;;;;;4950778;28;20225;-58
2022/03/31 00:21:35;;;;;;;1.17;0.90;;;22.20;62.50;;;;;;4951223;28;20662;-58
2022/03/31 00:24:08;;;;;;;2.83;0.90;;;22.20;62.40;;;;;;4949820;29;20758;-57
2022/03/31 00:26:39;;;;;;;2.13;0.90;;;22.30;62.40;;;;;;4950152;28;20313;-57
2022/03/31 00:29:09;;;;;;;1.50;0.88;;;22.30;62.40;;;;;;4950739;28;20302;-57
2022/03/31 00:31:40;;;;;;;1.38;0.80;;;22.30;62.30;;;;;;4951243;28;20238;-57
2022/03/31 00:34:11;;;;;;;3.17;1.00;;;22.40;62.30;;;;;;4950059;28;20558;-57
2022/03/31 00:36:41;;;;;;;1.75;0.88;;;22.40;62.20;;;;;;4950778;28;20191;-58
2022/03/31 00:39:32;;;;;;;2.67;0.95;;;22.40;62.10;;;;;;4951084;28;20881;-57
2022/03/31 00:42:03;;;;;;;1.70;0.90;;;22.50;62.20;;;;;;4950192;28;20586;-57
2022/03/31 00:44:33;;;;;;;2.08;1.00;;;22.50;62.20;;;;;;4949237;28;20226;-57
2022/03/31 00:47:04;;;;;;;1.38;0.93;;;22.50;62.10;;;;;;4947388;28;20223;-57
2022/03/31 00:49:34;;;;;;;2.10;0.98;;;22.50;62.10;;;;;;4950486;28;20282;-58
2022/03/31 00:54:46;;;;;;;2.22;0.95;;;22.60;62.00;;;;;;5307554;23;20340;-61
2022/03/31 00:57:22;;;;;;;3.25;1.15;;;22.60;62.00;;;;;;4947317;28;20511;-65
2022/03/31 00:59:58;;;;;;;1.15;0.85;;;22.60;61.90;;;;;;4944372;28;20566;-54
2022/03/31 01:02:35;;;;;;;1.55;1.08;;;22.70;62.00;;;;;;4947379;28;20249;-65
2022/03/31 01:05:19;;;;;;;2.15;1.25;;;22.70;62.00;;;;;;4948132;28;20470;-64
2022/03/31 01:07:50;;;;;;;2.38;0.90;;;22.70;62.00;;;;;;4947529;28;20686;-57
2022/03/31 01:10:23;;;;;;;2.58;1.10;;;22.80;62.00;;;;;;4949527;29;20238;-56
2022/03/31 01:12:53;;;;;;;1.65;0.82;;;22.80;62.10;;;;;;4950411;28;20285;-62
2022/03/31 01:15:25;;;;;;;3.05;0.95;;;22.80;62.00;;;;;;4949155;29;20301;-56
2022/03/31 01:17:55;;;;;;;1.95;1.00;;;22.80;62.00;;;;;;4950698;28;20560;-58
2022/03/31 01:20:25;;;;;;;2.80;1.10;;;22.80;61.90;;;;;;4949792;28;20203;-59
2022/03/31 01:22:56;;;;;;;2.15;1.05;;;22.90;61.90;;;;;;4950391;28;20282;-56
2022/03/31 01:25:28;;;;;;;2.25;1.05;;;22.90;61.90;;;;;;4949053;28;20278;-62
2022/03/31 01:27:59;;;;;;;2.28;1.20;;;22.90;61.80;;;;;;4952810;28;20223;-58
2022/03/31 01:30:29;;;;;;;1.95;1.10;;;22.90;61.70;;;;;;4953271;28;20285;-66
2022/03/31 01:33:00;;;;;;;1.48;0.82;;;23.00;61.70;;;;;;4953993;28;20191;-64
2022/03/31 01:35:30;;;;;;;1.48;0.90;;;23.00;61.60;;;;;;4952952;28;20290;-59
2022/03/31 01:38:02;;;;;;;2.42;0.98;;;23.00;61.50;;;;;;4953554;28;20222;-57
2022/03/31 01:40:35;;;;;;;2.42;1.10;;;23.10;61.50;;;;;;4953212;28;20198;-57
2022/03/31 01:43:05;;;;;;;1.55;0.90;;;23.10;61.40;;;;;;4953114;28;20286;-55
2022/03/31 01:45:36;;;;;;;2.55;1.02;;;23.10;61.20;;;;;;4954043;28;20286;-60
2022/03/31 01:48:06;;;;;;;1.48;1.00;;;23.10;61.10;;;;;;4952547;28;20227;-66
2022/03/31 01:50:37;;;;;;;1.75;1.05;;;23.10;61.00;;;;;;4953855;28;20279;-63
2022/03/31 01:53:07;;;;;;;2.15;1.10;;;23.20;61.10;;;;;;4953176;28;20283;-65
2022/03/31 01:55:40;;;;;;;2.67;1.13;;;23.20;61.20;;;;;;4951082;28;20763;-60
2022/03/31 01:58:11;;;;;;;2.65;1.23;;;23.20;61.10;;;;;;4952630;28;20218;-63
2022/03/31 02:00:41;;;;;;;1.98;1.02;;;23.20;61.20;;;;;;4953594;28;20282;-62
2022/03/31 02:03:12;;;;;;;3.15;0.98;;;23.20;61.20;;;;;;4953312;28;20199;-65
2022/03/31 02:05:42;;;;;;;1.52;0.80;;;23.30;61.20;;;;;;4952986;28;20286;-64
2022/03/31 02:08:13;;;;;;;3.10;1.23;;;23.30;61.10;;;;;;4952980;28;20601;-61
2022/03/31 02:10:45;;;;;;;1.70;1.10;;;23.30;61.00;;;;;;4953226;28;20291;-57
2022/03/31 02:13:16;;;;;;;2.40;1.35;;;23.40;61.00;;;;;;4952809;28;20290;-62
2022/03/31 02:15:46;;;;;;;3.75;1.15;;;23.40;61.00;;;;;;4953197;28;20190;-62
2022/03/31 02:18:16;;;;;;;2.83;1.20;;;23.40;60.90;;;;;;4953037;28;20219;-64
2022/03/31 02:20:47;;;;;;;2.05;1.08;;;23.50;60.90;;;;;;4951935;28;20201;-60
2022/03/31 02:23:17;;;;;;;2.92;1.48;;;23.50;60.80;;;;;;4952386;28;20281;-59
2022/03/31 02:25:50;;;;;;;1.90;1.10;;;23.50;60.80;;;;;;4952673;28;20207;-61
2022/03/31 02:28:21;;;;;;;3.15;1.30;;;23.50;60.70;;;;;;4950805;28;20687;-67
2022/03/31 02:30:51;;;;;;;2.72;1.70;;;23.60;60.70;;;;;;4951868;28;20209;-68
2022/03/31 02:33:22;;;;;;;7.53;1.80;;;23.60;60.70;;;;;;4951982;28;20294;-60
2022/03/31 02:35:52;;;;;;;5.30;1.80;;;23.60;60.90;;;;;;4950669;28;20281;-57
2022/03/31 02:38:23;;;;;;;5.70;1.83;;;23.60;61.10;;;;;;4951970;28;20655;-56
2022/03/31 02:40:55;;;;;;;4.30;1.58;;;23.70;61.10;;;;;;4951362;28;20722;-55
2022/03/31 02:43:25;;;;;;;7.07;1.75;;;23.70;61.10;;;;;;4951170;28;20737;-59
2022/03/31 02:45:56;;;;;;;4.97;1.80;;;23.70;61.10;;;;;;4952268;28;20286;-60
2022/03/31 02:48:26;;;;;;;3.80;1.30;;;23.80;61.00;;;;;;4951517;28;20317;-62
2022/03/31 02:51:04;;;;;;;4.60;1.60;;;23.80;60.80;;;;;;4952081;28;20246;-63
2022/03/31 02:56:39;;;;;;;5.32;1.92;;;23.80;60.70;;;;;;4888927;29;20204;-54
2022/03/31 02:59:09;;;;;;;5.13;1.67;;;23.90;61.00;;;;;;4891902;29;20213;-57
2022/03/31 03:01:41;;;;;;;5.15;1.77;;;24.00;61.10;;;;;;4921656;28;20631;-54
2022/03/31 03:04:12;;;;;;;4.68;1.75;;;24.00;61.00;;;;;;4944671;28;20205;-58
2022/03/31 03:06:42;;;;;;;6.57;1.65;;;24.00;60.90;;;;;;4949284;29;20203;-57
2022/03/31 03:09:13;;;;;;;3.08;1.55;;;24.10;60.80;;;;;;4947781;28;20219;-58
2022/03/31 03:11:46;;;;;;;4.65;1.30;;;24.10;60.70;;;;;;4951292;28;20195;-56
2022/03/31 03:14:16;;;;;;;5.03;1.65;;;24.20;60.60;;;;;;4952617;28;20608;-62
2022/03/31 03:16:47;;;;;;;4.15;1.63;;;24.20;60.50;;;;;;4952226;28;20284;-61
2022/03/31 03:19:17;;;;;;;3.65;1.65;;;24.20;60.30;;;;;;4952209;28;20309;-62
2022/03/31 03:21:48;;;;;;;3.40;1.65;;;24.30;60.30;;;;;;4951460;28;20282;-59
2022/03/31 03:24:18;;;;;;;4.03;1.77;;;24.30;60.20;;;;;;4950921;28;20218;-57
2022/03/31 03:26:51;;;;;;;5.75;1.50;;;24.30;60.10;;;;;;4950303;28;20685;-59
2022/03/31 03:29:21;;;;;;;3.88;1.85;;;24.30;60.00;;;;;;4951623;28;20689;-58
2022/03/31 03:31:52;;;;;;;4.82;1.77;;;24.30;59.90;;;;;;4950959;28;20675;-57
2022/03/31 03:34:23;;;;;;;5.10;1.77;;;24.40;60.00;;;;;;4951581;28;20210;-60
2022/03/31 03:36:53;;;;;;;4.55;1.48;;;24.40;59.90;;;;;;4951673;28;20205;-61
2022/03/31 03:39:24;;;;;;;3.25;1.48;;;24.40;59.80;;;;;;4951355;28;20306;-56
2022/03/31 03:41:56;;;;;;;4.78;1.80;;;24.40;59.70;;;;;;4950751;28;20285;-52
2022/03/31 03:44:26;;;;;;;5.03;1.65;;;24.50;59.70;;;;;;4950957;28;20561;-55
2022/03/31 03:46:57;;;;;;;3.20;1.58;;;24.50;59.60;;;;;;4950575;28;20191;-61
2022/03/31 03:49:27;;;;;;;3.53;1.55;;;24.50;59.60;;;;;;4951023;28;20323;-55
2022/03/31 03:51:58;;;;;;;3.38;1.48;;;24.50;59.50;;;;;;4968074;23;20333;-58
2022/03/31 03:54:29;;;;;;;3.55;1.70;;;24.60;59.50;;;;;;4970678;28;20277;-58
2022/03/31 03:57:01;;;;;;;3.78;1.58;;;24.60;59.50;;;;;;4969742;28;20198;-57
2022/03/31 03:59:32;;;;;;;3.67;1.70;;;24.70;59.50;;;;;;4951208;28;20206;-58
2022/03/31 04:02:02;;;;;;;2.90;1.33;;;24.70;59.40;;;;;;4950778;28;20739;-58
2022/03/31 04:04:33;;;;;;;4.75;1.73;;;24.70;59.30;;;;;;4950611;28;20223;-57
2022/03/31 04:07:03;;;;;;;3.55;1.50;;;24.80;59.20;;;;;;4947873;28;20644;-57
2022/03/31 04:09:34;;;;;;;3.63;1.40;;;24.80;59.20;;;;;;4951257;28;20285;-58
2022/03/31 04:12:07;;;;;;;1.42;1.13;;;24.80;59.10;;;;;;4950389;28;20197;-58
2022/03/31 04:14:37;;;;;;;3.28;1.30;;;24.90;59.70;;;;;;4950205;29;20203;-58
2022/03/31 04:17:08;;;;;;;2.25;1.55;;;24.90;59.00;;;;;;4950513;28;20290;-58
2022/03/31 04:19:38;;;;;;;4.72;1.70;;;24.90;59.00;;;;;;4950586;28;21544;-58
2022/03/31 04:22:09;;;;;;;3.10;1.58;;;24.90;59.00;;;;;;4949883;28;20629;-58
2022/03/31 04:24:41;;;;;;;5.57;1.70;;;25.00;59.00;;;;;;4950267;28;20207;-58
2022/03/31 04:27:13;;;;;;;2.53;1.40;;;25.00;58.90;;;;;;4950930;28;20226;-57
2022/03/31 04:29:44;;;;;;;3.55;1.67;;;25.00;58.90;;;;;;4950668;28;20291;-57
2022/03/31 04:32:15;;;;;;;4.68;1.48;;;25.10;59.00;;;;;;4948281;28;20313;-57
2022/03/31 04:34:45;;;;;;;4.35;1.60;;;25.10;59.00;;;;;;4950433;28;20670;-57
2022/03/31 04:37:16;;;;;;;3.45;1.83;;;25.10;58.90;;;;;;4950788;28;20836;-57
2022/03/31 04:39:46;;;;;;;4.82;1.67;;;25.10;58.90;;;;;;4950809;28;20195;-57
2022/03/31 04:42:18;;;;;;;3.50;1.55;;;25.20;59.00;;;;;;4950153;28;20197;-57
2022/03/31 04:44:49;;;;;;;3.25;1.50;;;25.20;58.90;;;;;;4949286;29;20277;-57
2022/03/31 04:47:19;;;;;;;4.32;1.83;;;25.20;58.90;;;;;;4944428;28;20215;-58
2022/03/31 04:49:50;;;;;;;3.72;1.48;;;25.30;58.80;;;;;;4939557;29;20203;-57
2022/03/31 04:52:20;;;;;;;4.95;1.67;;;25.30;58.70;;;;;;4961043;23;20286;-53
2022/03/31 04:54:51;;;;;;;2.80;1.38;;;25.30;58.70;;;;;;4950420;28;20277;-50
2022/03/31 04:57:23;;;;;;;4.05;1.80;;;25.30;58.50;;;;;;4949695;28;20258;-61
2022/03/31 04:59:54;;;;;;;4.18;1.80;;;25.40;58.40;;;;;;4949082;28;20642;-57
2022/03/31 05:02:24;;;;;;;4.03;1.50;;;25.40;58.20;;;;;;4953648;28;20209;-64
2022/03/31 05:04:55;;;;;;;3.97;1.50;;;25.40;58.10;;;;;;4954729;28;20214;-59
2022/03/31 05:07:25;;;;;;;4.38;1.98;;;25.40;58.00;;;;;;4953586;28;20231;-52
2022/03/31 05:09:56;;;;;;;5.55;1.80;;;25.40;58.10;;;;;;4952433;28;20765;-63
2022/03/31 05:12:28;;;;;;;2.55;1.40;;;25.40;58.10;;;;;;4953738;28;20216;-57
2022/03/31 05:14:58;;;;;;;3.17;1.60;;;25.50;58.10;;;;;;4954071;28;20722;-56
2022/03/31 05:17:34;;;;;;;3.03;1.33;;;25.50;58.10;;;;;;4954056;28;20306;-59
2022/03/31 05:20:08;;;;;;;3.88;1.50;;;25.50;58.10;;;;;;4952998;28;20633;-51
2022/03/31 05:22:39;;;;;;;4.72;1.50;;;25.50;58.00;;;;;;4954113;28;20221;-57
2022/03/31 05:25:12;;;;;;;5.38;1.45;;;25.50;58.00;;;;;;4953358;28;20773;-54
2022/03/31 05:27:49;;;;;;;4.05;1.98;;;25.50;58.00;;;;;;4953850;28;20223;-56
2022/03/31 05:30:21;;;;;;;4.15;1.70;;;25.50;58.00;;;;;;4952880;28;20237;-56
2022/03/31 05:32:52;;;;;;;2.90;1.40;;;25.50;58.00;;;;;;4953317;28;20274;-49
2022/03/31 05:35:23;;;;;;;4.47;1.73;;;25.50;58.00;;;;;;4953484;28;20191;-55
2022/03/31 05:37:54;;;;;;;3.28;1.40;;;25.50;57.90;;;;;;4953824;28;20747;-54
2022/03/31 05:40:24;;;;;;;4.22;1.75;;;25.50;57.80;;;;;;4951725;29;20281;-63
2022/03/31 05:42:57;;;;;;;3.38;1.30;;;25.50;57.70;;;;;;4953386;28;20300;-67
2022/03/31 05:45:27;;;;;;;4.45;1.60;;;25.50;57.60;;;;;;4953504;28;20206;-53
2022/03/31 05:47:58;;;;;;;4.13;1.48;;;25.50;57.60;;;;;;4953213;28;20313;-47
2022/03/31 05:50:28;;;;;;;3.15;1.70;;;25.50;57.60;;;;;;4953177;28;20719;-53
2022/03/31 05:52:59;;;;;;;5.07;1.40;;;25.50;57.60;;;;;;4964136;23;20914;-58
2022/03/31 05:55:30;;;;;;;5.55;1.70;;;25.50;57.60;;;;;;4953226;28;20234;-58
2022/03/31 05:58:02;;;;;;;4.28;1.52;;;25.50;57.60;;;;;;4953287;28;20221;-58
2022/03/31 06:00:33;;;;;;;5.60;1.60;;;25.50;57.60;;;;;;4953066;28;20222;-58
2022/03/31 06:03:03;;;;;;;4.70;1.70;;;25.50;57.60;;;;;;4952630;28;20286;-58
2022/03/31 06:05:34;;;;;;;4.05;1.90;;;25.50;57.60;;;;;;4950388;28;20294;-58
2022/03/31 06:08:05;;;;;;;4.75;1.98;;;25.50;57.60;;;;;;4953127;28;20241;-58
2022/03/31 06:10:35;;;;;;;4.60;1.42;;;25.50;57.60;;;;;;4951479;28;20281;-58
2022/03/31 06:13:08;;;;;;;4.30;1.38;;;25.50;57.60;;;;;;4953570;28;20715;-58
2022/03/31 06:15:38;;;;;;;4.18;1.52;;;25.40;57.50;;;;;;4952259;28;20368;-57
2022/03/31 06:18:09;;;;;;;3.67;1.65;;;25.50;57.60;;;;;;4952739;28;20234;-58
2022/03/31 06:20:39;;;;;;;2.63;1.30;;;25.40;57.60;;;;;;4952455;28;20203;-58
2022/03/31 06:23:10;;;;;;;3.67;1.75;;;25.40;57.60;;;;;;4952407;28;20278;-57
2022/03/31 06:25:40;;;;;;;4.75;1.52;;;25.40;57.70;;;;;;4952692;28;20237;-58
2022/03/31 06:28:13;;;;;;;3.90;1.90;;;25.40;57.60;;;;;;4948029;28;20318;-58
2022/03/31 06:30:44;;;;;;;3.55;1.75;;;25.40;57.60;;;;;;4935130;29;20287;-58
2022/03/31 06:33:17;;;;;;;4.18;1.45;;;25.40;57.60;;;;;;4934544;29;20286;-58
2022/03/31 06:35:49;;;;;;;4.07;1.30;;;25.40;57.60;;;;;;4933823;29;20195;-58
2022/03/31 06:38:19;;;;;;;5.25;1.45;;;25.30;57.60;;;;;;4933369;29;20219;-58
2022/03/31 06:43:35;;;;;;;3.30;1.35;;;25.30;57.60;;;;;;4932476;29;20718;-59
2022/03/31 06:46:06;;;;;;;5.38;2.03;;;25.30;57.50;;;;;;4932014;29;20286;-59
2022/03/31 06:48:37;;;;;;;3.72;1.85;;;25.30;57.40;;;;;;4950946;28;20313;-59
2022/03/31 06:53:50;;;;;;;4.20;1.50;;;25.20;57.30;;;;;;4930627;29;20218;-58
2022/03/31 06:56:21;;;;;;;5.55;1.77;;;25.20;57.40;;;;;;4932350;29;20198;-55
2022/03/31 06:58:53;;;;;;;5.03;1.70;;;25.20;57.40;;;;;;4932970;29;20299;-58
2022/03/31 07:01:24;;;;;;;3.50;1.70;;;25.20;57.40;;;;;;4933064;29;20274;-56
2022/03/31 07:03:54;;;;;;;4.60;1.50;;;25.10;57.40;;;;;;4932749;29;20300;-59
2022/03/31 07:06:24;;;;;;;3.40;1.70;;;25.10;57.40;;;;;;4932535;29;20761;-55
2022/03/31 07:08:55;;;;;;;3.97;1.50;;;25.10;57.40;;;;;;4932043;29;20693;-55
2022/03/31 07:11:25;;;;;;;3.35;1.52;;;25.10;57.50;;;;;;4932914;29;20646;-58
2022/03/31 07:14:01;;;;;;;4.32;1.80;;;25.10;57.50;;;;;;4933030;29;20639;-58
2022/03/31 07:16:31;;;;;;;3.47;1.50;;;25.00;57.40;;;;;;4932591;29;20279;-53
2022/03/31 07:19:03;;;;;;;3.08;1.42;;;25.00;57.50;;;;;;4932980;29;20271;-55
2022/03/31 07:21:33;;;;;;;2.58;1.40;;;25.00;57.50;;;;;;4932555;29;20204;-57
2022/03/31 07:24:04;;;;;;;2.85;1.33;;;24.90;57.50;;;;;;4931603;29;20286;-56
2022/03/31 07:26:34;;;;;;;4.22;1.55;;;24.90;57.50;;;;;;4932932;29;20734;-56
2022/03/31 07:29:07;;;;;;;2.13;1.65;;;24.90;57.60;;;;;;4932086;29;20227;-57
2022/03/31 07:31:37;;;;;;;2.85;1.58;;;24.90;57.50;;;;;;4932246;29;20282;-56
2022/03/31 07:34:08;;;;;;;2.72;1.23;;;24.90;57.60;;;;;;4931859;29;20282;-55
2022/03/31 07:36:38;;;;;;;2.95;1.30;;;24.90;57.60;;;;;;4932367;29;20288;-59
2022/03/31 07:39:09;;;;;;;4.97;1.65;;;24.90;57.60;;;;;;4931835;29;20291;-56
2022/03/31 07:41:40;;;;;;;4.55;1.80;;;24.80;57.50;;;;;;4932903;29;20211;-55
2022/03/31 07:44:12;;;;;;;3.10;1.50;;;24.80;57.60;;;;;;4932370;29;20275;-56
2022/03/31 07:46:42;;;;;;;2.78;1.35;;;24.80;57.60;;;;;;4932081;29;20286;-58
2022/03/31 07:49:14;;;;;;;2.58;1.33;;;24.70;57.60;;;;;;4932317;29;20239;-56
2022/03/31 07:51:44;;;;;;;2.38;1.52;;;24.70;57.60;;;;;;4944958;23;20245;-58
2022/03/31 07:54:15;;;;;;;4.28;1.65;;;24.70;57.70;;;;;;4951775;28;20282;-59
2022/03/31 07:56:45;;;;;;;4.13;1.67;;;24.70;57.70;;;;;;4951146;28;20195;-59
2022/03/31 07:59:21;;;;;;;3.88;1.60;;;24.60;57.70;;;;;;4950956;28;20254;-59
2022/03/31 08:01:52;;;;;;;4.57;2.00;;;24.60;57.70;;;;;;4948478;28;20706;-59
2022/03/31 08:04:22;;;;;;;4.35;1.90;;;24.60;57.70;;;;;;4951407;28;20618;-60
2022/03/31 08:06:53;;;;;;;4.00;1.75;;;24.60;57.80;;;;;;4950709;28;20209;-59
2022/03/31 08:09:24;;;;;;;5.30;2.05;;;24.60;57.90;;;;;;4950181;28;20310;-59
2022/03/31 08:11:54;;;;;;;4.38;2.03;;;24.50;57.90;;;;;;4950887;28;20286;-59
2022/03/31 08:14:27;;;;;;;6.43;2.55;;;24.50;57.90;;;;;;4950898;28;20284;-59
2022/03/31 08:16:57;;;;;;;5.93;2.08;;;24.50;58.00;;;;;;4950940;28;20195;-58
2022/03/31 08:19:30;;;;;;;4.88;2.28;;;24.50;58.00;;;;;;4950509;28;20250;-59
2022/03/31 08:22:01;;;;;;;4.53;1.88;;;24.50;58.00;;;;;;4950500;28;20195;-58
2022/03/31 08:24:32;;;;;;;5.20;1.90;;;24.50;58.00;;;;;;4948749;28;20669;-60
2022/03/31 08:27:03;;;;;;;4.25;2.20;;;24.50;58.00;;;;;;4949942;28;20278;-59
2022/03/31 08:29:35;;;;;;;4.28;1.88;;;24.50;58.00;;;;;;4950641;28;20223;-59
2022/03/31 08:32:06;;;;;;;5.50;2.08;;;24.40;58.00;;;;;;4950236;28;20293;-59
2022/03/31 08:34:37;;;;;;;7.45;2.28;;;24.40;58.00;;;;;;4949900;28;20285;-59
2022/03/31 08:37:07;;;;;;;4.03;1.98;;;24.40;58.00;;;;;;4950238;28;20231;-59
2022/03/31 08:39:38;;;;;;;5.10;1.95;;;24.30;57.70;;;;;;4950525;29;20286;-59
2022/03/31 08:42:09;;;;;;;4.78;2.03;;;24.30;58.00;;;;;;4950542;28;20290;-59
2022/03/31 08:44:42;;;;;;;3.75;1.70;;;24.30;58.10;;;;;;4949897;28;20573;-59
2022/03/31 08:47:14;;;;;;;4.30;1.90;;;24.30;58.10;;;;;;4947955;28;20235;-60
2022/03/31 08:49:45;;;;;;;2.33;1.38;;;24.30;58.10;;;;;;4949154;29;20230;-59
2022/03/31 08:52:15;;;;;;;5.90;2.10;;;24.20;58.20;;;;;;4967147;23;20945;-58
2022/03/31 08:54:46;;;;;;;4.40;1.90;;;24.20;58.10;;;;;;4968046;28;20216;-58
2022/03/31 08:57:16;;;;;;;4.93;2.17;;;24.20;58.20;;;;;;4966655;28;20198;-57
2022/03/31 08:59:49;;;;;;;4.10;1.90;;;24.20;58.20;;;;;;4969453;28;20204;-57
2022/03/31 09:02:29;;;;;;;3.42;1.70;;;24.20;58.10;;;;;;4969865;28;20745;-57
2022/03/31 09:05:09;;;;;;;5.28;1.92;;;24.20;58.10;;;;;;4969081;28;20233;-57
2022/03/31 09:07:53;;;;;;;5.65;1.90;;;24.20;58.10;;;;;;4970377;28;20563;-57
2022/03/31 09:10:34;;;;;;;2.85;1.70;;;24.10;58.10;;;;;;4969513;28;20222;-57
2022/03/31 09:13:06;;;;;;;3.03;1.70;;;24.10;58.10;;;;;;4969194;28;20285;-57
2022/03/31 09:15:41;;;;;;;4.88;1.90;;;24.10;58.10;;;;;;4969596;28;20285;-57
2022/03/31 09:18:11;;;;;;;5.70;2.03;;;24.10;58.20;;;;;;4966887;28;20220;-57
2022/03/31 09:20:43;;;;;;;3.13;1.55;;;24.10;58.20;;;;;;4968303;28;20206;-57
2022/03/31 09:23:18;;;;;;;3.30;1.73;;;24.00;58.20;;;;;;4969178;28;20237;-57
2022/03/31 09:25:50;;;;;;;3.15;1.50;;;24.00;58.20;;;;;;4970073;28;20857;-57
2022/03/31 09:28:22;;;;;;;3.72;1.80;;;24.00;58.20;;;;;;4969336;28;20218;-57
2022/03/31 09:30:57;;;;;;;4.10;1.63;;;24.00;58.20;;;;;;4970300;28;20301;-57
2022/03/31 09:33:35;;;;;;;3.45;1.52;;;24.00;58.20;;;;;;4969051;28;20614;-57
2022/03/31 09:36:08;;;;;;;3.65;1.65;;;23.90;58.20;;;;;;4969243;28;20278;-57
2022/03/31 09:38:39;;;;;;;3.28;1.60;;;24.00;58.30;;;;;;4969223;28;20262;-57
2022/03/31 09:41:25;;;;;;;4.38;1.92;;;23.90;58.30;;;;;;4969765;28;20202;-57
2022/03/31 09:43:57;;;;;;;3.60;1.80;;;23.90;58.30;;;;;;4968177;28;20756;-56
2022/03/31 09:46:30;;;;;;;3.50;2.08;;;23.90;58.30;;;;;;4970872;28;20572;-57
2022/03/31 09:49:00;;;;;;;4.38;1.70;;;23.90;58.30;;;;;;4972807;28;20886;-57
2022/03/31 09:54:01;;;;;;;3.83;1.50;;;23.80;58.30;;;;;;4931867;29;20219;-56
2022/03/31 09:56:35;;;;;;;2.85;1.50;;;23.80;58.30;;;;;;4935157;29;20290;-62
2022/03/31 09:59:07;;;;;;;3.72;1.90;;;23.80;58.30;;;;;;4933781;29;20215;-59
2022/03/31 10:01:40;;;;;;;4.22;1.50;;;23.80;58.30;;;;;;4934420;29;20282;-55
2022/03/31 10:04:11;;;;;;;3.08;1.77;;;23.80;58.30;;;;;;4922760;29;20236;-60
2022/03/31 10:06:43;;;;;;;3.67;1.75;;;23.80;58.40;;;;;;4918422;29;20231;-60
2022/03/31 10:09:14;;;;;;;3.58;1.70;;;23.70;58.30;;;;;;4917767;29;20319;-58
2022/03/31 10:11:47;;;;;;;2.72;1.63;;;23.80;58.40;;;;;;4916338;29;20286;-57
2022/03/31 10:14:30;;;;;;;2.95;1.58;;;23.70;58.30;;;;;;4916559;29;20287;-54
2022/03/31 10:17:04;;;;;;;2.92;1.63;;;23.70;58.30;;;;;;4916372;29;20295;-63
2022/03/31 10:19:37;;;;;;;1.98;1.40;;;23.70;58.30;;;;;;4916078;29;20208;-61
2022/03/31 10:24:41;;;;;;;3.28;1.67;;;23.70;58.30;;;;;;4915659;29;20299;-65
2022/03/31 10:25:02;;;;;;;2.10;1.45;;;23.70;58.30;;;;;;4916394;29;20197;-62
2022/03/31 10:27:34;;;;;;;2.63;1.52;;;23.60;58.30;;;;;;4916148;29;20571;-60
2022/03/31 10:30:13;;;;;;;2.05;1.40;;;23.60;58.30;;;;;;4916384;29;20335;-56
2022/03/31 10:32:56;;;;;;;3.53;1.70;;;23.60;58.40;;;;;;4916345;29;20200;-59
2022/03/31 10:35:28;;;;;;;1.88;1.33;;;23.60;58.40;;;;;;4915576;29;20239;-64
2022/03/31 10:37:59;;;;;;;3.75;1.40;;;23.60;58.50;;;;;;4915595;29;20299;-53
2022/03/31 10:40:38;;;;;;;2.95;1.70;;;23.60;58.50;;;;;;4916284;29;20200;-63
2022/03/31 10:43:11;;;;;;;3.15;1.55;;;23.50;58.40;;;;;;4915982;29;20204;-62
2022/03/31 10:45:42;;;;;;;1.92;1.30;;;23.50;58.50;;;;;;4915666;29;20547;-64
2022/03/31 10:48:20;;;;;;;3.63;1.60;;;23.50;58.50;;;;;;4915782;29;20247;-64
2022/03/31 10:51:03;;;;;;;1.95;1.38;;;23.50;58.50;;;;;;4915047;29;20323;-61
2022/03/31 10:53:35;;;;;;;3.78;1.75;;;23.50;58.50;;;;;;4957293;23;20321;-59
2022/03/31 10:56:18;;;;;;;4.15;1.67;;;23.50;58.50;;;;;;4953936;28;20254;-59
2022/03/31 10:58:52;;;;;;;2.63;1.70;;;23.50;58.50;;;;;;4967713;28;20222;-59
2022/03/31 11:01:23;;;;;;;2.33;1.60;;;23.50;58.50;;;;;;4973026;28;20204;-58
2022/03/31 11:04:02;;;;;;;2.95;1.85;;;23.40;58.50;;;;;;4972911;28;20281;-58
2022/03/31 11:06:33;;;;;;;2.58;1.70;;;23.40;58.50;;;;;;4972334;28;20194;-58
2022/03/31 11:09:03;;;;;;;2.20;1.30;;;23.40;58.50;;;;;;4972806;28;20320;-58
2022/03/31 11:11:34;;;;;;;2.05;1.50;;;23.40;58.50;;;;;;4972989;28;20636;-59
2022/03/31 11:14:12;;;;;;;2.75;1.65;;;23.40;58.60;;;;;;4972921;28;20209;-59
2022/03/31 11:16:42;;;;;;;2.72;1.52;;;23.40;59.10;;;;;;4972984;28;20204;-58
2022/03/31 11:19:17;;;;;;;4.40;1.98;;;23.40;58.50;;;;;;4972996;28;20308;-58
2022/03/31 11:21:47;;;;;;;4.10;1.60;;;23.30;58.50;;;;;;4972447;28;20229;-58
2022/03/31 11:24:24;;;;;;;2.65;1.50;;;23.30;58.50;;;;;;4972870;28;20281;-58
2022/03/31 11:26:55;;;;;;;3.13;1.80;;;23.30;58.60;;;;;;4972608;28;20198;-58
2022/03/31 11:29:29;;;;;;;3.20;1.35;;;23.30;58.60;;;;;;4972338;28;20277;-58
2022/03/31 11:32:00;;;;;;;3.17;1.70;;;23.30;58.60;;;;;;4972552;28;20261;-58
2022/03/31 11:34:32;;;;;;;2.33;1.65;;;23.30;58.70;;;;;;4972217;28;20210;-58
2022/03/31 11:37:02;;;;;;;2.55;1.55;;;23.30;58.70;;;;;;4971557;28;20284;-58
2022/03/31 11:39:34;;;;;;;2.90;1.60;;;23.30;59.20;;;;;;4971941;28;20237;-58
2022/03/31 11:42:09;;;;;;;4.88;1.70;;;23.30;58.70;;;;;;4972536;28;20240;-58
2022/03/31 11:44:43;;;;;;;3.00;1.73;;;23.20;58.60;;;;;;4972400;28;20204;-58
2022/03/31 11:47:20;;;;;;;3.28;1.80;;;23.20;58.60;;;;;;4971863;28;20198;-59
2022/03/31 11:50:02;;;;;;;1.83;1.45;;;23.20;58.60;;;;;;4971879;28;20238;-59
2022/03/31 12:49:45;;;;;;;2.80;2.00;;;23.00;58.80;;;;;;5761424;23;20226;-61
2022/03/31 12:52:16;;;;;;;2.53;1.88;;;22.90;58.70;;;;;;4951183;28;20803;-62
2022/03/31 12:54:53;;;;;;;3.22;1.92;;;23.00;58.80;;;;;;4951811;28;20269;-52
2022/03/31 12:57:26;;;;;;;2.55;1.80;;;22.90;58.80;;;;;;4950280;28;20277;-62
2022/03/31 13:00:12;;;;;;;1.90;1.73;;;22.90;58.80;;;;;;4951975;28;20286;-59
2022/03/31 13:02:44;;;;;;;3.22;2.08;;;22.90;58.80;;;;;;4951947;28;20650;-55
2022/03/31 13:05:21;;;;;;;2.25;1.90;;;22.90;58.80;;;;;;4951809;28;20286;-58
2022/03/31 13:07:53;;;;;;;2.63;1.55;;;22.90;58.90;;;;;;4944415;28;20627;-60
2022/03/31 13:10:24;;;;;;;2.75;1.98;;;22.90;58.90;;;;;;4932522;29;20306;-58
2022/03/31 13:12:56;;;;;;;2.28;1.88;;;22.80;58.90;;;;;;4932542;29;20196;-57
2022/03/31 13:15:26;;;;;;;2.78;1.90;;;22.80;58.90;;;;;;4932691;29;20207;-62
2022/03/31 13:17:57;;;;;;;3.55;2.30;;;22.80;58.90;;;;;;4932738;29;20219;-63
2022/03/31 13:20:29;;;;;;;2.20;2.00;;;22.80;58.90;;;;;;4933021;29;20211;-57
2022/03/31 13:23:00;;;;;;;2.90;2.35;;;22.80;59.00;;;;;;4936355;29;20286;-61
2022/03/31 13:25:31;;;;;;;3.05;2.15;;;22.80;59.00;;;;;;4936680;29;20286;-59
2022/03/31 13:28:01;;;;;;;2.40;1.80;;;22.80;59.00;;;;;;4936042;29;20255;-59
2022/03/31 13:30:32;;;;;;;2.30;2.08;;;22.80;59.00;;;;;;4936187;29;20267;-58
2022/03/31 13:33:02;;;;;;;3.10;2.25;;;22.80;58.90;;;;;;4936165;29;20274;-54
2022/03/31 13:35:35;;;;;;;2.45;1.85;;;22.80;59.00;;;;;;4935988;29;20278;-59
2022/03/31 13:38:05;;;;;;;2.40;2.00;;;22.80;59.00;;;;;;4935481;29;20235;-62
2022/03/31 13:40:37;;;;;;;3.17;2.42;;;22.80;58.90;;;;;;4936295;29;20290;-58
2022/03/31 13:43:08;;;;;;;2.88;2.13;;;22.80;59.00;;;;;;4936134;29;20674;-59
2022/03/31 13:45:38;;;;;;;2.70;2.25;;;22.70;58.90;;;;;;4954243;29;20674;-59
2022/03/31 13:48:09;;;;;;;2.28;2.08;;;22.70;58.90;;;;;;4955110;28;20254;-57
2022/03/31 13:50:42;;;;;;;2.30;2.10;;;22.70;58.90;;;;;;4943138;28;20326;-61
2022/03/31 13:55:59;;;;;;;3.42;2.20;;;22.70;58.90;;;;;;4936095;29;20203;-58
2022/03/31 14:01:30;;;;;;;2.95;2.40;;;22.70;58.90;;;;;;4913812;29;20207;-56
2022/03/31 14:04:01;;;;;;;2.58;2.38;;;22.60;58.90;;;;;;4913924;29;20288;-51
2022/03/31 14:06:33;;;;;;;2.47;2.28;;;22.60;58.90;;;;;;4923866;29;20666;-56
2022/03/31 14:09:04;;;;;;;2.53;2.33;;;22.60;59.00;;;;;;4934792;29;20655;-59
2022/03/31 14:11:34;;;;;;;2.85;2.42;;;22.60;59.00;;;;;;4934963;29;20312;-64
2022/03/31 14:14:07;;;;;;;2.08;1.88;;;22.60;59.00;;;;;;4934779;29;20673;-62
2022/03/31 14:16:40;;;;;;;3.10;2.33;;;22.60;59.00;;;;;;4935143;29;20204;-58
2022/03/31 14:19:11;;;;;;;2.72;2.15;;;22.60;59.00;;;;;;4935042;29;20223;-63
2022/03/31 14:21:45;;;;;;;2.53;2.30;;;22.60;59.00;;;;;;4934886;29;20196;-61
2022/03/31 14:24:15;;;;;;;3.38;2.53;;;22.60;59.00;;;;;;4935016;29;20287;-58
2022/03/31 14:26:47;;;;;;;2.17;2.00;;;22.50;58.90;;;;;;4935233;29;20209;-62
2022/03/31 14:29:18;;;;;;;2.40;2.20;;;22.50;58.90;;;;;;4935374;29;20314;-61